Time;durP1;ratioP1;P1;durP2;ratioP2;P2;SDS_P1;SDS_P2;PMS_P1;PMS_P2;Temp;Humidity;BMP_temperature;BMP_pressure;BME280_temperature;BME280_humidity;BME280_pressure;Samples;Min_cycle;Max_cycle;Signal;HPM_P1;HPM_P2
2021/04/21 00:03:02;;;;;;;12.33;11.13;;;;;;;9.88;93.59;100022.00;20703677;28;20225;-53
2021/04/21 00:13:02;;;;;;;13.37;11.97;;;;;;;9.76;95.32;100021.00;20724113;28;20603;-55
2021/04/21 00:23:06;;;;;;;14.27;12.85;;;;;;;9.68;96.12;100017.94;20703471;28;20224;-53
2021/04/21 00:33:08;;;;;;;14.90;13.33;;;;;;;9.61;97.08;100014.84;20723378;28;20285;-56
2021/04/21 00:43:24;;;;;;;14.70;13.20;;;;;;;9.55;97.48;100001.06;20708256;28;20317;-67
2021/04/21 00:53:39;;;;;;;15.00;13.50;;;;;;;9.50;98.05;99997.84;20717371;28;20227;-69
2021/04/21 01:03:41;;;;;;;17.20;13.50;;;;;;;9.42;98.77;99995.66;20711407;28;20233;-66
2021/04/21 01:14:08;;;;;;;17.53;15.63;;;;;;;9.39;99.22;100001.22;20710275;28;20324;-70
2021/04/21 01:24:11;;;;;;;19.70;16.37;;;;;;;9.39;99.34;100001.22;20718287;28;20228;-59
2021/04/21 01:34:13;;;;;;;19.37;17.40;;;;;;;9.39;100.00;99994.09;20703302;28;20232;-56
2021/04/21 01:44:19;;;;;;;20.30;18.00;;;;;;;9.39;100.00;100002.06;20718033;28;20240;-66
2021/04/21 01:54:20;;;;;;;21.63;18.43;;;;;;;9.42;100.00;99995.66;20698651;28;20234;-69
2021/04/21 02:04:54;;;;;;;23.70;19.93;;;;;;;9.46;100.00;99994.53;20718241;28;20235;-64
2021/04/21 02:15:05;;;;;;;19.57;17.00;;;;;;;9.50;100.00;99988.06;20700251;28;20286;-63
2021/04/21 02:25:43;;;;;;;20.37;18.23;;;;;;;9.53;100.00;99971.88;20720487;28;20231;-64
2021/04/21 02:35:48;;;;;;;21.33;18.73;;;;;;;9.55;100.00;99972.63;20718636;28;20225;-68
2021/04/21 02:46:15;;;;;;;19.67;17.30;;;;;;;9.56;100.00;99953.00;20726545;28;20597;-52
2021/04/21 02:56:34;;;;;;;20.63;18.43;;;;;;;9.43;100.00;99954.78;20722576;28;20327;-60
2021/04/21 03:06:38;;;;;;;23.70;21.20;;;;;;;9.08;100.00;99958.84;20720117;28;20319;-53
2021/04/21 03:16:42;;;;;;;20.97;18.80;;;;;;;9.01;100.00;99966.38;20727048;28;20877;-53
2021/04/21 03:26:47;;;;;;;21.00;18.90;;;;;;;9.13;100.00;99970.06;20711257;28;20218;-52
2021/04/21 03:36:48;;;;;;;22.27;19.87;;;;;;;9.16;100.00;99978.72;20728568;28;20249;-54
2021/04/21 03:46:49;;;;;;;26.00;23.20;;;;;;;9.25;100.00;99966.63;20703351;28;20246;-53
2021/04/21 03:56:51;;;;;;;24.43;21.80;;;;;;;9.34;100.00;99950.06;20725800;28;20730;-52
2021/04/21 04:06:54;;;;;;;26.73;23.87;;;;;;;8.93;100.00;99908.34;20708414;28;20229;-54
2021/04/21 04:16:57;;;;;;;26.30;23.50;;;;;;;9.26;100.00;99979.84;20721827;28;20217;-53
2021/04/21 04:26:59;;;;;;;26.47;23.27;;;;;;;9.46;100.00;99975.03;20713923;28;20658;-52
2021/04/21 04:36:59;;;;;;;23.67;21.17;;;;;;;9.66;100.00;99977.25;20712174;28;20311;-63
2021/04/21 04:47:02;;;;;;;23.17;20.67;;;;;;;9.98;100.00;99993.75;20719674;28;20238;-54
2021/04/21 04:57:04;;;;;;;22.17;19.90;;;;;;;10.34;100.00;99982.44;20689797;28;20471;-62
2021/04/21 05:07:07;;;;;;;22.67;20.10;;;;;;;10.74;100.00;99988.56;20674932;28;20327;-60
2021/04/21 05:17:32;;;;;;;22.80;20.50;;;;;;;10.90;99.04;99983.81;20657868;28;20314;-66
2021/04/21 05:28:11;;;;;;;21.10;18.90;;;;;;;11.06;98.70;99941.72;20673322;28;20651;-53
2021/04/21 05:38:33;;;;;;;21.07;18.97;;;;;;;12.03;93.65;99978.22;20602470;28;20323;-63
2021/04/21 05:49:06;;;;;;;21.57;18.10;;;;;;;12.02;91.42;99985.38;20670889;28;20320;-54
2021/04/21 05:59:37;;;;;;;20.90;18.80;;;;;;;11.51;92.77;99982.06;20651461;28;20237;-60
2021/04/21 06:09:39;;;;;;;19.13;17.30;;;;;;;11.28;96.64;99982.88;20681029;28;20229;-60
2021/04/21 06:19:43;;;;;;;20.73;18.47;;;;;;;11.34;95.09;99974.44;20675227;28;20226;-53
2021/04/21 06:29:44;;;;;;;19.90;17.87;;;;;;;11.61;94.30;99969.72;20672829;28;20590;-53
2021/04/21 06:39:44;;;;;;;19.43;17.40;;;;;;;11.93;94.35;99963.84;20679952;28;20224;-53
2021/04/21 06:49:45;;;;;;;19.83;17.93;;;;;;;12.19;92.16;99962.72;20663010;28;20768;-56
2021/04/21 07:00:11;;;;;;;19.47;17.33;;;;;;;12.47;90.11;99966.78;20682926;28;20294;-60
2021/04/21 07:10:11;;;;;;;19.43;17.50;;;;;;;12.85;90.30;99958.41;20658447;28;20234;-56
2021/04/21 07:20:13;;;;;;;22.50;17.43;;;;;;;13.20;88.67;99969.88;20676346;28;20220;-54
2021/04/21 07:30:14;;;;;;;21.80;19.70;;;;;;;13.41;88.71;99969.09;20656107;28;20266;-57
2021/04/21 07:40:33;;;;;;;21.50;19.30;;;;;;;13.44;86.70;99977.75;20656975;28;20246;-54
2021/04/21 07:50:34;;;;;;;22.50;20.20;;;;;;;13.50;87.83;99946.91;20643064;28;20240;-54
2021/04/21 08:00:34;;;;;;;27.27;21.80;;;;;;;13.82;83.79;99982.63;20669733;28;20374;-57
2021/04/21 08:10:36;;;;;;;28.63;24.20;;;;;;;14.01;84.81;99982.78;20666487;28;20764;-61
2021/04/21 08:21:03;;;;;;;25.13;22.37;;;;;;;14.03;83.31;99986.19;20660650;28;20266;-54
2021/04/21 08:31:04;;;;;;;21.40;17.73;;;;;;;13.77;83.74;99982.16;20684234;28;20683;-54
2021/04/21 08:41:05;;;;;;;20.97;18.87;;;;;;;14.26;82.87;99986.09;20652834;28;20227;-53
2021/04/21 08:51:07;;;;;;;18.93;17.03;;;;;;;15.12;81.44;99994.69;20674176;28;21658;-54
2021/04/21 09:01:09;;;;;;;19.33;17.43;;;;;;;15.88;78.89;99994.19;20657309;28;21363;-57
2021/04/21 09:11:10;;;;;;;19.30;17.50;;;;;;;15.94;77.33;99991.78;20668678;28;21015;-57
2021/04/21 09:21:19;;;;;;;19.90;18.00;;;;;;;15.66;75.27;99989.91;20652567;28;20220;-64
2021/04/21 09:31:24;;;;;;;20.57;18.40;;;;;;;15.80;77.17;99982.31;20666812;28;20315;-54
2021/04/21 09:41:26;;;;;;;19.03;17.13;;;;;;;15.87;74.56;99982.56;20687474;28;20921;-58
2021/04/21 09:51:29;;;;;;;21.07;18.87;;;;;;;16.25;73.79;99965.56;20656499;28;20240;-63
2021/04/21 10:01:37;;;;;;;16.07;14.47;;;;;;;16.41;70.53;99959.63;20583904;28;20236;-68
2021/04/21 10:11:38;;;;;;;13.63;12.10;;;;;;;16.21;68.46;99948.84;20666471;28;20225;-70
2021/04/21 10:21:40;;;;;;;12.63;11.33;;;;;;;16.40;68.81;99930.97;20732842;28;20750;-60
2021/04/21 10:31:40;;;;;;;8.17;7.37;;;;;;;16.56;62.55;99928.50;20735715;28;21070;-55
2021/04/21 10:41:44;;;;;;;7.17;6.47;;;;;;;16.90;60.96;99910.81;20720109;28;20229;-65
2021/04/21 10:51:47;;;;;;;8.23;6.27;;;;;;;17.01;56.67;99914.34;20689680;28;20236;-64
2021/04/21 11:01:48;;;;;;;6.70;5.20;;;;;;;16.66;55.15;99872.81;20656803;28;20324;-64
2021/04/21 11:11:50;;;;;;;9.70;5.73;;;;;;;16.65;54.41;99897.19;20667753;28;20609;-75
2021/04/21 11:22:14;;;;;;;7.07;5.77;;;;;;;16.57;57.07;99884.41;20709710;28;20270;-66
2021/04/21 11:32:16;;;;;;;8.40;5.47;;;;;;;16.47;56.70;99894.38;20689352;28;20867;-72
2021/04/21 11:42:28;;;;;;;6.10;5.50;;;;;;;16.40;52.67;99872.59;20711626;28;20245;-66
2021/04/21 11:52:51;;;;;;;6.77;5.60;;;;;;;16.68;52.29;99876.19;20691770;28;20228;-67
2021/04/21 12:02:51;;;;;;;6.50;5.30;;;;;;;16.68;54.30;99870.78;20703864;28;20213;-59
2021/04/21 12:12:52;;;;;;;10.73;5.70;;;;;;;16.91;56.00;99869.41;20694264;28;20232;-73
2021/04/21 12:22:53;;;;;;;6.47;5.87;;;;;;;17.09;53.66;99857.81;20704734;28;20277;-60
2021/04/21 12:32:54;;;;;;;8.13;5.90;;;;;;;17.03;52.47;99842.22;20696148;28;20228;-65
2021/04/21 12:43:15;;;;;;;8.03;6.13;;;;;;;17.18;50.96;99829.94;20691041;28;20575;-66
2021/04/21 12:53:19;;;;;;;6.10;5.50;;;;;;;17.07;53.00;99838.25;20709156;28;20233;-66
2021/04/21 13:03:20;;;;;;;9.37;5.20;;;;;;;17.11;49.10;99826.16;20684302;28;20223;-60
2021/04/21 13:13:29;;;;;;;6.43;5.10;;;;;;;16.95;52.51;99790.94;20708401;28;20236;-66
2021/04/21 13:23:30;;;;;;;7.03;5.67;;;;;;;17.15;49.17;99814.06;20678254;28;20724;-58
2021/04/21 13:33:30;;;;;;;7.07;6.37;;;;;;;17.05;49.86;99834.84;20696749;28;20221;-54
2021/04/21 13:43:31;;;;;;;6.53;5.93;;;;;;;17.00;53.10;99824.53;20685835;28;21104;-59
2021/04/21 13:53:32;;;;;;;6.30;5.70;;;;;;;17.05;53.10;99818.69;20652108;28;20252;-59
2021/04/21 14:03:33;;;;;;;6.63;5.80;;;;;;;17.15;50.30;99811.38;20657680;28;20782;-68
2021/04/21 14:13:35;;;;;;;6.37;5.67;;;;;;;17.20;52.53;99804.53;20669926;28;20327;-60
2021/04/21 14:23:36;;;;;;;9.80;6.77;;;;;;;17.09;52.46;99801.19;20675639;28;20232;-53
2021/04/21 14:33:36;;;;;;;8.63;7.50;;;;;;;16.98;50.45;99812.22;20663913;28;21027;-53
2021/04/21 14:43:36;;;;;;;12.23;7.33;;;;;;;16.85;54.04;99782.94;20679276;28;20237;-53
2021/04/21 14:53:37;;;;;;;8.20;7.37;;;;;;;16.69;50.87;99806.97;20659774;28;21507;-55
2021/04/21 15:03:37;;;;;;;6.57;5.90;;;;;;;16.42;47.89;99808.63;20679547;28;20233;-51
2021/04/21 15:13:39;;;;;;;5.63;4.37;;;;;;;16.42;48.63;99805.13;20661271;28;20249;-57
2021/04/21 15:23:39;;;;;;;6.87;4.80;;;;;;;16.38;48.46;99801.00;20670105;28;20231;-55
2021/04/21 15:33:40;;;;;;;4.30;3.67;;;;;;;16.38;50.04;99795.63;20660918;28;21119;-53
2021/04/21 15:43:41;;;;;;;5.20;4.47;;;;;;;16.30;49.74;99803.59;20657276;28;20324;-52
2021/04/21 15:53:42;;;;;;;5.80;4.40;;;;;;;16.00;52.34;99800.13;20673941;28;20237;-70
2021/04/21 16:03:45;;;;;;;10.50;6.80;;;;;;;15.54;54.50;99813.50;20657569;28;20427;-56
2021/04/21 16:13:46;;;;;;;7.13;6.43;;;;;;;15.24;58.28;99822.53;20670959;28;20362;-53
2021/04/21 16:23:46;;;;;;;9.83;7.10;;;;;;;15.17;59.84;99824.09;20618314;28;20232;-63
2021/04/21 16:33:47;;;;;;;7.57;6.20;;;;;;;15.07;62.37;99816.03;20671960;28;20771;-68
2021/04/21 16:43:47;;;;;;;8.20;6.03;;;;;;;14.65;66.04;99796.56;20655482;28;20228;-54
2021/04/21 16:53:48;;;;;;;13.27;8.10;;;;;;;14.58;62.62;99846.44;20665694;28;20331;-65
2021/04/21 17:03:50;;;;;;;7.23;6.47;;;;;;;14.45;63.35;99859.25;20655366;28;20985;-52
2021/04/21 17:14:04;;;;;;;6.87;6.27;;;;;;;14.29;65.08;99862.38;20652597;28;20244;-51
2021/04/21 17:24:05;;;;;;;8.97;8.07;;;;;;;14.21;67.48;99864.88;20661347;28;20234;-51
2021/04/21 17:34:06;;;;;;;8.57;6.87;;;;;;;13.98;67.22;99869.53;20648862;28;20836;-52
2021/04/21 17:44:07;;;;;;;12.67;9.93;;;;;;;13.70;66.87;99862.97;20664323;28;20247;-53
2021/04/21 17:54:07;;;;;;;8.60;7.70;;;;;;;13.39;69.57;99877.28;20651343;28;20226;-51
2021/04/21 18:04:09;;;;;;;13.90;10.00;;;;;;;13.05;71.38;99879.13;20682852;28;20682;-54
2021/04/21 18:14:10;;;;;;;8.90;8.00;;;;;;;12.65;72.99;99877.00;20664034;28;20280;-55
2021/04/21 18:24:11;;;;;;;13.83;11.30;;;;;;;12.31;74.68;99884.19;20680230;28;20238;-54
2021/04/21 18:34:11;;;;;;;20.97;12.10;;;;;;;11.96;76.23;99883.38;20666100;28;20232;-52
2021/04/21 18:44:12;;;;;;;31.77;15.97;;;;;;;11.53;78.27;99891.94;20670956;28;20243;-53
2021/04/21 18:54:12;;;;;;;22.10;14.55;;;;;;;11.22;79.23;99887.19;20674859;28;20229;-68
2021/04/21 19:04:13;;;;;;;23.47;19.07;;;;;;;10.96;80.68;99897.97;20660539;28;20867;-54
2021/04/21 19:14:13;;;;;;;12.27;10.63;;;;;;;10.82;81.07;99901.63;20676171;28;20231;-54
2021/04/21 19:24:14;;;;;;;10.73;9.63;;;;;;;10.79;81.43;99896.50;20657317;28;20236;-65
2021/04/21 19:34:14;;;;;;;14.53;12.30;;;;;;;10.76;82.04;99901.19;20675197;28;20239;-54
2021/04/21 19:44:15;;;;;;;17.00;14.07;;;;;;;10.65;82.70;99898.44;20662484;28;20476;-56
2021/04/21 19:54:15;;;;;;;69.70;44.50;;;;;;;10.52;82.05;99900.28;20677102;28;20244;-55
2021/04/21 20:04:15;;;;;;;27.77;20.90;;;;;;;10.34;82.65;99903.28;20649312;28;20327;-55
2021/04/21 20:14:17;;;;;;;25.40;19.03;;;;;;;10.14;84.39;99906.47;20637821;28;20271;-60
2021/04/21 20:24:17;;;;;;;36.13;23.57;;;;;;;10.07;85.92;99907.84;20637736;28;20241;-59
2021/04/21 20:34:18;;;;;;;20.50;17.03;;;;;;;10.00;86.85;99907.41;20628660;28;20244;-56
2021/04/21 20:44:19;;;;;;;31.50;22.93;;;;;;;9.86;87.36;99909.31;20692404;28;20775;-74
2021/04/21 20:54:21;;;;;;;18.07;15.23;;;;;;;9.72;87.62;99907.56;20628094;28;20233;-75
2021/04/21 21:04:21;;;;;;;16.30;14.60;;;;;;;9.52;88.79;99918.72;20721603;28;20306;-75
2021/04/21 21:14:22;;;;;;;18.60;16.60;;;;;;;9.42;89.64;99910.44;20703062;28;20223;-64
2021/04/21 21:24:22;;;;;;;17.67;14.37;;;;;;;9.54;89.29;99898.97;20670533;28;20698;-71
2021/04/21 21:34:23;;;;;;;13.45;12.05;;;;;;;9.66;88.72;99902.66;20695048;28;20471;-60
2021/04/21 21:44:23;;;;;;;13.93;12.53;;;;;;;9.73;86.67;99899.47;20671715;28;20232;-53
2021/04/21 21:54:24;;;;;;;11.87;10.67;;;;;;;9.80;87.61;99899.03;20632970;28;20269;-54
2021/04/21 22:04:25;;;;;;;12.93;10.65;;;;;;;9.81;86.64;99900.75;20629937;28;20955;-53
2021/04/21 22:14:26;;;;;;;11.43;10.23;;;;;;;9.75;85.82;99902.91;20660258;28;20235;-70
2021/04/21 22:24:26;;;;;;;15.83;12.33;;;;;;;9.77;83.18;99899.28;20669605;28;20768;-75
2021/04/21 22:34:27;;;;;;;12.60;10.43;;;;;;;9.84;83.43;99896.06;20637586;28;20232;-66
2021/04/21 22:44:27;;;;;;;12.57;10.70;;;;;;;9.89;82.29;99898.44;20625177;28;20673;-62
2021/04/21 22:54:28;;;;;;;14.73;12.57;;;;;;;9.94;81.92;99896.31;20647621;28;20275;-58
2021/04/21 23:04:28;;;;;;;12.57;10.93;;;;;;;10.00;81.54;99885.22;20637518;28;20975;-66
2021/04/21 23:14:29;;;;;;;11.73;10.53;;;;;;;10.07;81.59;99889.16;20655900;28;20897;-67
2021/04/21 23:24:29;;;;;;;13.67;11.20;;;;;;;10.11;81.11;99890.69;20729331;28;20689;-68
2021/04/21 23:34:30;;;;;;;14.53;12.53;;;;;;;10.16;79.42;99912.53;20714641;28;20260;-74
2021/04/21 23:44:30;;;;;;;17.20;13.97;;;;;;;10.11;78.31;99896.00;20728405;28;20236;-63
2021/04/21 23:54:31;;;;;;;18.47;13.50;;;;;;;10.14;78.19;99903.81;20707191;28;20234;-71
